sensor_id;sensor_type;location;lat;lon;timestamp;temperature;humidity
80964;DHT22;70425;59.322;13.486;2023-06-22T00:37:33;17.20;99.90
80964;DHT22;70425;59.322;13.486;2023-06-22T00:59:18;17.30;99.90
80964;DHT22;70425;59.322;13.486;2023-06-22T01:38:38;17.10;99.90
80964;DHT22;70425;59.322;13.486;2023-06-22T01:41:28;17.20;99.90
80964;DHT22;70425;59.322;13.486;2023-06-22T01:44:18;17.20;99.90
80964;DHT22;70425;59.322;13.486;2023-06-22T02:33:11;17.20;99.90
80964;DHT22;70425;59.322;13.486;2023-06-22T03:47:10;17.30;99.90
80964;DHT22;70425;59.322;13.486;2023-06-22T04:18:48;18.10;99.90
80964;DHT22;70425;59.322;13.486;2023-06-22T05:05:36;20.00;99.90
80964;DHT22;70425;59.322;13.486;2023-06-22T05:11:05;20.00;99.90
80964;DHT22;70425;59.322;13.486;2023-06-22T05:13:54;20.10;99.90
80964;DHT22;70425;59.322;13.486;2023-06-22T05:16:43;20.20;99.90
80964;DHT22;70425;59.322;13.486;2023-06-22T05:19:33;20.10;99.90
80964;DHT22;70425;59.322;13.486;2023-06-22T05:22:21;20.00;99.90
80964;DHT22;70425;59.322;13.486;2023-06-22T05:25:14;20.10;99.90
80964;DHT22;70425;59.322;13.486;2023-06-22T05:28:03;20.50;99.90
80964;DHT22;70425;59.322;13.486;2023-06-22T05:30:54;20.90;99.90
80964;DHT22;70425;59.322;13.486;2023-06-22T05:33:43;20.90;99.90
80964;DHT22;70425;59.322;13.486;2023-06-22T05:36:31;20.60;99.90
80964;DHT22;70425;59.322;13.486;2023-06-22T05:42:21;21.00;99.90
80964;DHT22;70425;59.322;13.486;2023-06-22T05:48:03;20.70;99.90
80964;DHT22;70425;59.322;13.486;2023-06-22T06:04:10;21.10;99.90
80964;DHT22;70425;59.322;13.486;2023-06-22T06:31:41;21.30;99.90
80964;DHT22;70425;59.322;13.486;2023-06-22T06:34:29;21.20;99.90
80964;DHT22;70425;59.322;13.486;2023-06-22T06:37:18;21.40;99.90
80964;DHT22;70425;59.322;13.486;2023-06-22T06:43:01;21.30;99.90
80964;DHT22;70425;59.322;13.486;2023-06-22T06:45:49;21.80;99.90
80964;DHT22;70425;59.322;13.486;2023-06-22T06:48:38;21.90;99.90
80964;DHT22;70425;59.322;13.486;2023-06-22T06:51:28;21.70;99.90
80964;DHT22;70425;59.322;13.486;2023-06-22T06:54:18;21.30;99.90
80964;DHT22;70425;59.322;13.486;2023-06-22T06:57:08;21.60;99.90
80964;DHT22;70425;59.322;13.486;2023-06-22T06:59:58;21.40;99.90
80964;DHT22;70425;59.322;13.486;2023-06-22T07:02:47;21.60;99.90
80964;DHT22;70425;59.322;13.486;2023-06-22T07:05:36;21.80;99.90
80964;DHT22;70425;59.322;13.486;2023-06-22T07:08:25;21.90;99.90
80964;DHT22;70425;59.322;13.486;2023-06-22T07:11:14;22.10;99.90
80964;DHT22;70425;59.322;13.486;2023-06-22T07:14:03;21.90;99.90
80964;DHT22;70425;59.322;13.486;2023-06-22T07:16:52;21.80;99.90
80964;DHT22;70425;59.322;13.486;2023-06-22T07:19:40;21.80;99.90
80964;DHT22;70425;59.322;13.486;2023-06-22T07:22:31;21.90;99.90
80964;DHT22;70425;59.322;13.486;2023-06-22T07:57:27;22.30;99.90
80964;DHT22;70425;59.322;13.486;2023-06-22T08:00:19;22.40;99.90
80964;DHT22;70425;59.322;13.486;2023-06-22T08:03:07;22.80;99.90
80964;DHT22;70425;59.322;13.486;2023-06-22T08:05:56;23.00;99.90
80964;DHT22;70425;59.322;13.486;2023-06-22T08:08:45;23.10;99.90
80964;DHT22;70425;59.322;13.486;2023-06-22T08:11:35;23.10;99.90
80964;DHT22;70425;59.322;13.486;2023-06-22T08:14:25;23.10;99.90
80964;DHT22;70425;59.322;13.486;2023-06-22T08:34:04;23.40;99.90
80964;DHT22;70425;59.322;13.486;2023-06-22T08:36:53;23.20;99.90
80964;DHT22;70425;59.322;13.486;2023-06-22T08:39:41;23.30;99.90
80964;DHT22;70425;59.322;13.486;2023-06-22T08:42:31;23.20;99.90
80964;DHT22;70425;59.322;13.486;2023-06-22T09:00:07;23.30;99.90
80964;DHT22;70425;59.322;13.486;2023-06-22T09:17:00;23.50;99.90
80964;DHT22;70425;59.322;13.486;2023-06-22T09:22:41;23.80;99.90
80964;DHT22;70425;59.322;13.486;2023-06-22T09:25:30;23.80;99.90
80964;DHT22;70425;59.322;13.486;2023-06-22T10:16:06;24.10;99.90
80964;DHT22;70425;59.322;13.486;2023-06-22T10:21:49;24.40;99.90
80964;DHT22;70425;59.322;13.486;2023-06-22T10:24:37;24.60;99.90
80964;DHT22;70425;59.322;13.486;2023-06-22T10:27:27;24.70;99.90
80964;DHT22;70425;59.322;13.486;2023-06-22T10:30:16;24.70;99.90
80964;DHT22;70425;59.322;13.486;2023-06-22T10:33:05;24.60;99.90
80964;DHT22;70425;59.322;13.486;2023-06-22T10:35:54;24.70;99.90
80964;DHT22;70425;59.322;13.486;2023-06-22T10:38:44;24.60;99.90
80964;DHT22;70425;59.322;13.486;2023-06-22T10:44:32;24.10;99.90
80964;DHT22;70425;59.322;13.486;2023-06-22T10:47:20;24.10;99.90
80964;DHT22;70425;59.322;13.486;2023-06-22T10:50:10;24.20;99.90
80964;DHT22;70425;59.322;13.486;2023-06-22T10:52:59;24.30;99.90
80964;DHT22;70425;59.322;13.486;2023-06-22T10:55:48;24.60;99.90
80964;DHT22;70425;59.322;13.486;2023-06-22T10:58:36;24.50;99.90
80964;DHT22;70425;59.322;13.486;2023-06-22T11:17:20;24.70;99.90
80964;DHT22;70425;59.322;13.486;2023-06-22T11:23:02;25.00;99.90
80964;DHT22;70425;59.322;13.486;2023-06-22T11:28:43;25.20;99.90
80964;DHT22;70425;59.322;13.486;2023-06-22T12:19:06;25.20;99.90
80964;DHT22;70425;59.322;13.486;2023-06-22T12:24:36;25.70;99.90
80964;DHT22;70425;59.322;13.486;2023-06-22T12:27:24;25.10;99.90
80964;DHT22;70425;59.322;13.486;2023-06-22T12:30:13;25.00;99.90
80964;DHT22;70425;59.322;13.486;2023-06-22T12:33:02;24.80;99.90
80964;DHT22;70425;59.322;13.486;2023-06-22T12:35:53;24.70;99.90
80964;DHT22;70425;59.322;13.486;2023-06-22T12:38:42;25.00;99.90
80964;DHT22;70425;59.322;13.486;2023-06-22T12:41:30;25.40;99.90
80964;DHT22;70425;59.322;13.486;2023-06-22T12:44:19;25.60;99.90
80964;DHT22;70425;59.322;13.486;2023-06-22T12:47:08;25.80;99.90
80964;DHT22;70425;59.322;13.486;2023-06-22T12:49:57;25.70;99.90
80964;DHT22;70425;59.322;13.486;2023-06-22T12:58:00;25.80;99.90
80964;DHT22;70425;59.322;13.486;2023-06-22T13:00:49;25.30;99.90
80964;DHT22;70425;59.322;13.486;2023-06-22T13:03:38;25.00;99.90
80964;DHT22;70425;59.322;13.486;2023-06-22T13:06:26;25.30;99.90
80964;DHT22;70425;59.322;13.486;2023-06-22T13:09:17;25.30;99.90
80964;DHT22;70425;59.322;13.486;2023-06-22T13:12:08;25.30;99.90
80964;DHT22;70425;59.322;13.486;2023-06-22T13:14:57;25.30;99.90
80964;DHT22;70425;59.322;13.486;2023-06-22T13:17:47;25.60;99.90
80964;DHT22;70425;59.322;13.486;2023-06-22T13:20:37;25.60;99.90
80964;DHT22;70425;59.322;13.486;2023-06-22T13:23:27;25.90;99.90
80964;DHT22;70425;59.322;13.486;2023-06-22T15:04:17;25.40;99.90
80964;DHT22;70425;59.322;13.486;2023-06-22T15:28:44;25.10;99.90
80964;DHT22;70425;59.322;13.486;2023-06-22T15:49:05;25.30;99.90
80964;DHT22;70425;59.322;13.486;2023-06-22T17:18:08;23.60;99.90
80964;DHT22;70425;59.322;13.486;2023-06-22T19:13:51;21.80;99.90
80964;DHT22;70425;59.322;13.486;2023-06-22T19:16:42;21.60;99.90
80964;DHT22;70425;59.322;13.486;2023-06-22T19:19:34;21.60;99.90
80964;DHT22;70425;59.322;13.486;2023-06-22T19:23:00;21.50;99.90
80964;DHT22;70425;59.322;13.486;2023-06-22T19:25:49;21.30;99.90
80964;DHT22;70425;59.322;13.486;2023-06-22T19:29:14;21.20;99.90
80964;DHT22;70425;59.322;13.486;2023-06-22T19:32:00;21.10;99.90
80964;DHT22;70425;59.322;13.486;2023-06-22T19:34:52;21.00;99.90
80964;DHT22;70425;59.322;13.486;2023-06-22T19:37:51;20.80;99.90
80964;DHT22;70425;59.322;13.486;2023-06-22T19:40:47;20.70;99.90
80964;DHT22;70425;59.322;13.486;2023-06-22T19:43:55;20.50;99.90
80964;DHT22;70425;59.322;13.486;2023-06-22T19:46:45;20.40;99.90
80964;DHT22;70425;59.322;13.486;2023-06-22T20:23:05;20.00;99.90
80964;DHT22;70425;59.322;13.486;2023-06-22T22:00:25;18.20;99.90
80964;DHT22;70425;59.322;13.486;2023-06-22T22:03:14;18.20;99.90
80964;DHT22;70425;59.322;13.486;2023-06-22T22:06:04;18.10;99.90
80964;DHT22;70425;59.322;13.486;2023-06-22T22:08:53;18.10;99.90
80964;DHT22;70425;59.322;13.486;2023-06-22T22:11:42;18.00;99.90
80964;DHT22;70425;59.322;13.486;2023-06-22T22:14:32;18.00;99.90
80964;DHT22;70425;59.322;13.486;2023-06-22T22:17:20;18.00;99.90
80964;DHT22;70425;59.322;13.486;2023-06-22T22:20:11;18.00;99.90
80964;DHT22;70425;59.322;13.486;2023-06-22T22:23:02;18.00;99.90
80964;DHT22;70425;59.322;13.486;2023-06-22T22:25:51;17.90;99.90
80964;DHT22;70425;59.322;13.486;2023-06-22T22:28:39;17.90;99.90
80964;DHT22;70425;59.322;13.486;2023-06-22T22:31:28;18.00;99.90
80964;DHT22;70425;59.322;13.486;2023-06-22T22:37:24;18.00;99.90
80964;DHT22;70425;59.322;13.486;2023-06-22T22:40:13;17.90;99.90
80964;DHT22;70425;59.322;13.486;2023-06-22T23:43:58;17.10;99.90
80964;DHT22;70425;59.322;13.486;2023-06-22T23:46:49;16.90;99.90
80964;DHT22;70425;59.322;13.486;2023-06-22T23:49:39;16.80;99.90
80964;DHT22;70425;59.322;13.486;2023-06-22T23:52:27;16.70;99.90
80964;DHT22;70425;59.322;13.486;2023-06-22T23:55:18;16.60;99.90
80964;DHT22;70425;59.322;13.486;2023-06-22T23:58:10;16.50;99.90
